Station: Green Cape  

  Atmospheric Gas Attenuation - ITU Rec 676-11   ----------------- dB/100km -----------------
Date Time Temp RH % AH g/m3 Dew Point Wind Direction Speed kph Gust kph Barometer mB Rainfall Since 9am 24GHz 47GHz 76GHz 122GHz 134GHz 241GHz
08/05 12:30 15.1 69 8.9 9.5 54 85 1013.5 0 20.2 26.0 40.4 105.9 100.7 346.7
08/05 12:20 15.6 71 9.44 10.5 56 65 1014 0 21.3 26.8 42.3 111.1 107.2 369.5
08/05 12:10 15.7 70 9.37 10.2 52 59 1013.9 0 21.1 26.6 41.9 110.2 106.1 365.8
08/05 12:00 15.4 71 9.33 10.2 57 76 1013.7 0 21.1 26.6 41.9 110.2 106.0 365.3
08/05 11:50 15.3 73 9.53 10.5 59 67 1014 0 21.5 27.0 42.8 112.5 108.8 375.2
08/05 11:40 15.3 71 9.27 10.2 69 74 1013.5 0 20.9 26.5 41.7 109.6 105.3 362.9
08/05 11:30 15.5 71 9.38 10.3 63 82 1013.5 0 21.2 26.7 42.1 110.5 106.5 367.1
08/05 11:20 16 69 9.4 10.3 61 72 1013.2 0 21.2 26.5 41.9 110.0 106.1 365.6
08/05 11:10 16.2 66 9.1 10 56 59 1013.2 0 20.5 26.0 40.6 106.6 101.9 350.9
08/05 11:00 16.1 67 9.18 10 65 83 1013.1 0 20.7 26.2 40.9 107.5 103.0 355.0
08/05 10:50 16.1 65 8.91 9.5 65 80 1013 0 20.1 25.7 39.9 104.7 99.5 342.7
08/05 10:40 16.3 66 9.16 10.1 63 70 1012.7 0 20.7 26.0 40.7 107.0 102.5 353.1
08/05 10:30 16.2 64 8.83 9.4 63 87 1012.6 0 20.0 25.5 39.5 103.7 98.3 338.5
08/05 10:20 15.9 68 9.21 10 72 85 1012.5 0 20.8 26.2 41.1 108.1 103.6 357.1
08/05 10:10 15.8 71 9.56 10.7 57 69 1012.5 0 21.5 26.8 42.6 111.9 108.4 373.7
08/05 10:00 15.1 71 9.16 9.9 57 76 1012.5 0 20.7 26.4 41.3 108.6 104.0 358.4
08/05 09:50 15.1 72 9.29 10.1 61 70 1012.7 0 21.0 26.6 41.9 110.0 105.8 364.5
08/05 09:40 15.6 68 9.04 9.7 61 74 1012.8 0 20.4 26.1 40.6 106.7 101.8 350.7
08/05 09:30 15.5 70 9.25 10.1 61 78 1012.8 0 20.9 26.4 41.5 109.1 104.7 360.8
08/05 09:20 15.7 69 9.23 10 57 69 1012.7 0 20.8 26.3 41.3 108.6 104.2 359.0
08/05 09:10 15.5 70 9.25 10 54 63 1012.8 0 20.9 26.4 41.5 109.1 104.7 360.8
08/05 09:00 15.3 72 9.4 10.3 56 74 1012.7 0 21.2 26.7 42.2 110.9 107.0 368.7
08/05 08:50 14.9 71 9.05 9.7 59 67 1012.7 2.8 20.5 26.3 41.0 107.7 102.9 354.3
08/05 08:40 15 73 9.36 10.2 56 59 1012.8 2.8 21.2 26.8 42.2 110.9 106.9 368.3
08/05 08:30 15 72 9.23 10 63 78 1012.6 2.8 20.9 26.5 41.7 109.5 105.1 362.2
08/05 08:20 15.1 70 9.03 9.8 67 78 1012.2 2.8 20.4 26.2 40.8 107.2 102.3 352.3
08/05 08:10 14.9 69 8.79 9.4 59 67 1012.3 2.8 19.9 25.8 40.0 104.9 99.4 342.2
08/05 08:00 14.8 70 8.87 9.4 61 87 1012.2 2.8 20.1 26.0 40.3 105.9 100.6 346.3
08/05 07:50 14.8 72 9.12 9.8 63 69 1012.1 2.8 20.7 26.4 41.3 108.6 103.9 357.8
08/05 07:40 14.9 72 9.18 9.9 59 65 1011.8 2.8 20.8 26.5 41.5 109.0 104.5 360.1
08/05 07:30 15 71 9.1 9.8 69 91 1011.6 2.8 20.6 26.3 41.1 108.0 103.3 355.8
08/05 07:20 15.2 69 8.96 9.7 57 65 1011.3 2.8 20.3 26.0 40.4 106.2 101.2 348.4
08/05 07:10 15.2 69 8.96 9.7 65 76 1011 2.8 20.3 26.0 40.4 106.2 101.2 348.3
08/05 07:00 15.2 68 8.83 9.3 72 100 1010.7 2.8 20.0 25.8 39.9 104.8 99.4 342.3
08/05 06:50 15.2 67 8.7 9.1 70 76 1010.5 2.8 19.7 25.5 39.4 103.4 97.7 336.3
08/05 06:40 15.2 66 8.57 8.9 72 80 1010.4 2.8 19.5 25.3 38.9 102.0 96.0 330.4
08/05 06:30 15.3 68 8.88 9.4 65 85 1010.6 2.8 20.1 25.8 40.0 105.2 99.9 344.1
08/05 06:20 15.3 67 8.75 9.2 70 80 1010.5 2.8 19.8 25.6 39.5 103.8 98.2 338.2
08/05 06:10 15.5 68 8.99 9.6 59 63 1010.2 2.8 20.3 25.9 40.4 106.0 101.1 348.2
08/05 06:00 15.4 65 8.54 8.9 65 85 1010 2.8 19.4 25.2 38.6 101.4 95.4 328.1
08/05 05:50 15.5 67 8.86 9.4 57 69 1010.2 2.8 20.1 25.7 39.8 104.6 99.4 342.2
08/05 05:40 15.2 66 8.57 8.9 46 69 1010.4 2.8 19.5 25.3 38.9 102.0 96.0 330.4
08/05 05:30 15.1 66 8.51 8.8 48 67 1010.3 2.8 19.3 25.3 38.7 101.5 95.4 328.1
08/05 05:20 15 67 8.59 8.9 43 46 1010.3 2.8 19.5 25.4 39.0 102.5 96.5 332.1
08/05 05:10 15.1 66 8.51 8.8 54 63 1010.5 2.8 19.3 25.3 38.7 101.5 95.4 328.1
08/05 05:00 15.1 66 8.51 8.8 46 67 1010.6 2.8 19.3 25.3 38.7 101.5 95.4 328.2
08/05 04:50 15 64 8.21 8.4 43 56 1010.6 2.8 18.7 24.8 37.6 98.5 91.7 315.1
08/05 04:40 15.1 67 8.64 9 43 54 1010.9 2.8 19.6 25.5 39.2 102.9 97.1 334.1
08/05 04:30 15 65 8.33 8.5 46 65 1011 2.8 19.0 25.0 38.0 99.8 93.2 320.6
08/05 04:20 14.9 64 8.16 8.3 44 50 1011 2.8 18.6 24.8 37.4 98.2 91.2 313.3
08/05 04:10 14.8 64 8.11 8 37 52 1011.1 2.8 18.5 24.8 37.3 97.8 90.7 311.5
08/05 04:00 14.6 63 7.88 7.6 33 52 1011.4 2.8 18.0 24.5 36.5 95.7 88.0 302.1
08/05 03:50 14.4 63 7.79 7.4 33 41 1011.3 2.8 17.8 24.4 36.2 95.0 87.0 298.8
08/05 03:40 13.7 64 7.58 7 24 30 1011.5 2.8 17.4 24.2 35.8 93.7 85.2 292.1
08/05 03:30 13.2 63 7.23 6.3 11 22 1011.6 2.8 16.7 23.8 34.6 90.7 81.3 278.4
08/05 03:20 13.2 64 7.35 6.5 7 11 1011.7 2.8 16.9 24.0 35.1 91.9 82.8 283.8
08/05 03:10 13.4 65 7.56 6.9 22 26 1011.8 2.8 17.4 24.3 35.8 93.9 85.3 292.4
08/05 03:00 12.6 65 7.19 6.2 9 24 1012.1 2.8 16.6 23.9 34.8 91.0 81.4 278.8
08/05 02:50 12.7 63 7.01 5.8 11 13 1012.1 2.8 16.2 23.6 34.0 89.0 79.0 270.5
08/05 02:40 13 63 7.15 6.1 19 24 1012.3 2.8 16.5 23.8 34.4 90.1 80.5 275.7
08/05 02:30 13.1 64 7.3 6.5 32 43 1012.2 2.8 16.8 24.0 35.0 91.6 82.3 282.0
08/05 02:20 13 64 7.26 6.3 33 41 1012.3 2.8 16.8 24.0 34.9 91.3 81.9 280.6
08/05 02:10 12.8 63 7.06 5.9 30 33 1012.4 2.8 16.3 23.7 34.2 89.5 79.6 272.4
08/05 02:00 12.7 63 7.01 5.8 35 57 1012.7 2.8 16.2 23.7 34.0 89.1 79.1 270.6
08/05 01:50 12.7 63 7.01 6 39 46 1012.9 2.8 16.2 23.7 34.1 89.1 79.1 270.7
08/05 01:40 12.7 65 7.24 6.3 48 54 1012.9 2.8 16.7 24.0 34.9 91.5 82.0 280.9
08/05 01:30 12.4 64 6.99 5.8 41 54 1012.9 2.8 16.2 23.7 34.1 89.2 79.1 270.8
08/05 01:20 12.2 64 6.91 5.6 37 43 1013.2 2.8 16.1 23.7 33.9 88.7 78.3 268.0
08/05 01:10 12.3 67 7.28 6.3 37 43 1013.5 2.8 16.8 24.2 35.3 92.4 83.0 284.3
08/05 01:00 11.9 66 6.99 5.8 32 41 1013.7 2.8 16.2 23.9 34.4 89.9 79.7 272.7
08/05 00:50 11.7 66 6.9 5.5 32 37 1014.1 2.8 16.1 23.8 34.1 89.2 78.8 269.5
08/05 00:40 11.6 65 6.76 5.4 32 35 1014.3 2.8 15.8 23.6 33.6 87.9 77.1 263.6
08/05 00:20 11.6 65 6.76 5.2 35 41 1014.4 2.8 15.8 23.6 33.6 87.9 77.1 263.6
08/05 00:10 11.6 65 6.76 5.2 39 48 1014.5 2.8 15.8 23.6 33.6 87.9 77.1 263.6
08/05 00:00 11.6 67 6.96 5.7 32 44 1014.7 2.8 16.2 23.9 34.4 90.0 79.7 272.6
07/05 23:50 11.5 65 6.71 5.3 32 35 1015 2.8 15.7 23.6 33.5 87.6 76.6 261.9
07/05 23:40 11.3 64 6.53 4.7 33 39 1015.1 2.8 15.3 23.4 32.9 85.9 74.5 254.5
07/05 23:30 11.5 66 6.82 5.4 37 46 1015.2 2.8 15.9 23.8 33.9 88.7 78.0 266.8
07/05 23:20 11.4 65 6.67 5.2 39 43 1015.2 2.8 15.6 23.6 33.4 87.3 76.2 260.5
07/05 23:10 11.4 65 6.67 5.2 43 48 1015.4 2.8 15.6 23.6 33.4 87.3 76.2 260.5
07/05 23:00 11.3 66 6.73 5.2 39 50 1015.6 2.8 15.7 23.7 33.7 88.0 77.1 263.5
07/05 22:50 11.3 67 6.84 5.4 35 39 1015.7 2.8 15.9 23.9 34.1 89.2 78.5 268.5
07/05 22:40 11.2 67 6.79 5.3 39 43 1015.8 2.8 15.8 23.8 34.0 88.8 78.0 266.6
07/05 22:30 11.1 67 6.75 5.2 39 48 1015.9 2.8 15.8 23.8 33.9 88.5 77.6 265.2
07/05 22:20 11 66 6.61 4.9 41 50 1016 2.8 15.5 23.6 33.4 87.2 75.9 259.3
07/05 22:10 11.2 70 7.1 5.9 39 46 1016 2.8 16.5 24.3 35.2 92.0 82.0 280.7
07/05 22:00 11.2 69 7 5.7 46 57 1016.2 2.8 16.3 24.2 34.8 91.0 80.7 276.2
07/05 21:50 11.2 69 7 5.7 44 48 1016.1 2.8 16.3 24.2 34.8 91.0 80.7 276.1
07/05 21:40 11.2 70 7.1 5.9 43 48 1016.2 2.8 16.5 24.3 35.2 92.1 82.0 280.7
07/05 21:30 11.2 72 7.3 6.3 52 69 1016.1 2.8 16.9 24.6 36.0 94.2 84.6 289.8
07/05 21:20 11 71 7.11 5.9 50 57 1015.8 2.8 16.5 24.4 35.3 92.4 82.3 281.8
07/05 21:10 11 70 7.01 5.7 57 65 1015.8 2.8 16.3 24.2 34.9 91.3 81.0 277.2
07/05 21:00 11.2 71 7.2 6.1 50 61 1015.9 2.8 16.7 24.5 35.6 93.1 83.3 285.2
07/05 20:50 10.9 68 6.77 5.2 56 67 1015.7 2.8 15.8 23.9 34.0 88.9 78.0 266.7
07/05 20:40 11 69 6.91 5.5 56 59 1015.7 2.8 16.1 24.1 34.5 90.3 79.7 272.7
07/05 20:30 10.8 68 6.72 5.1 46 56 1015.9 2.8 15.7 23.8 33.9 88.5 77.5 264.8
07/05 20:20 10.8 68 6.72 5.1 50 56 1016 2.8 15.7 23.8 33.9 88.5 77.5 264.9
07/05 20:10 10.7 68 6.68 5 46 52 1016 2.8 15.6 23.8 33.8 88.2 77.1 263.4
07/05 20:00 10.6 68 6.64 4.9 43 56 1016.1 2.8 15.5 23.8 33.6 87.9 76.7 261.9
07/05 19:50 10.5 69 6.69 5 46 50 1016 2.8 15.6 23.9 33.9 88.6 77.4 264.5

Last Refresh: 08-May-2026 12:08:02

Bureau of Meteorology